Time;durP1;ratioP1;P1;durP2;ratioP2;P2;SDS_P1;SDS_P2;PMS_P1;PMS_P2;Temp;Humidity;BMP_temperature;BMP_pressure;BME280_temperature;BME280_humidity;BME280_pressure;Samples;Min_cycle;Max_cycle;Signal;HPM_P1;HPM_P2
2022/02/08 00:01:21;;;;;;;;;;;;;;;;;;5118141;28;19916;-78
2022/02/08 00:03:47;;;;;;;;;;;;;;;;;;5118635;28;19920;-77
2022/02/08 00:06:34;;;;;;;;;;;;;;;;;;5119197;28;19961;-77
2022/02/08 00:08:59;;;;;;;;;;;;;;;;;;5118465;28;19925;-77
2022/02/08 00:11:25;;;;;;;;;;;;;;;;;;5117762;28;19923;-77
2022/02/08 00:13:50;;;;;;;;;;;;;;;;;;5116684;28;19951;-77
2022/02/08 00:16:15;;;;;;;;;;;;;;;;;;5116886;28;19919;-77
2022/02/08 00:18:41;;;;;;;;;;;;;;;;;;5117310;28;19916;-78
2022/02/08 00:21:06;;;;;;;;;;;;;;;;;;5116698;28;19916;-77
2022/02/08 00:23:32;;;;;;;;;;;;;;;;;;5116303;28;20057;-77
2022/02/08 00:25:57;;;;;;;;;;;;;;;;;;5116762;28;20285;-77
2022/02/08 00:28:22;;;;;;;;;;;;;;;;;;5116626;28;20389;-77
2022/02/08 00:30:48;;;;;;;;;;;;;;;;;;5107769;28;20002;-78
2022/02/08 00:33:13;;;;;;;;;;;;;;;;;;5095268;28;19927;-77
2022/02/08 00:35:38;;;;;;;;;;;;;;;;;;5095249;28;20009;-77
2022/02/08 00:38:04;;;;;;;;;;;;;;;;;;5095674;28;19922;-77
2022/02/08 00:40:29;;;;;;;;;;;;;;;;;;5095693;28;20127;-77
2022/02/08 00:42:56;;;;;;;;;;;;;;;;;;5095015;28;19920;-77
2022/02/08 00:47:54;;;;;;;;;;;;;;;;;;5094610;28;19916;-77
2022/02/08 00:50:20;;;;;;;;;;;;;;;;;;5095298;28;19927;-77
2022/02/08 00:52:45;;;;;;;;;;;;;;;;;;5095620;28;20445;-78
2022/02/08 00:55:11;;;;;;;;;;;;;;;;;;5093466;28;19961;-78
2022/02/08 00:57:40;;;;;;;;;;;;;;;;;;5094527;28;20285;-78
2022/02/08 01:00:07;;;;;;;;;;;;;;;;;;5093458;28;19925;-78
2022/02/08 01:02:33;;;;;;;;;;;;;;;;;;5095685;28;19974;-77
2022/02/08 01:05:01;;;;;;;;;;;;;;;;;;5094071;28;19963;-77
2022/02/08 01:07:27;;;;;;;;;;;;;;;;;;5094363;28;20454;-78
2022/02/08 01:09:56;;;;;;;;;;;;;;;;;;5094203;28;19916;-77
2022/02/08 01:12:22;;;;;;;;;;;;;;;;;;5093233;28;19916;-78
2022/02/08 01:14:50;;;;;;;;;;;;;;;;;;5093977;28;19916;-77
2022/02/08 01:17:16;;;;;;;;;;;;;;;;;;5093813;28;20383;-77
2022/02/08 01:19:50;;;;;;;;;;;;;;;;;;5095154;28;20297;-77
2022/02/08 01:22:15;;;;;;;;;;;;;;;;;;5077114;28;19962;-77
2022/02/08 01:24:43;;;;;;;;;;;;;;;;;;5093683;28;19924;-77
2022/02/08 01:27:10;;;;;;;;;;;;;;;;;;5095017;28;19920;-77
2022/02/08 01:29:40;;;;;;;;;;;;;;;;;;5093043;28;19969;-77
2022/02/08 01:34:53;;;;;;;;;;;;;;;;;;5093661;28;19916;-79
2022/02/08 01:40:09;;;;;;;;;;;;;;;;;;5093043;28;19922;-78
2022/02/08 01:43:00;;;;;;;;;;;;;;;;;;5094477;28;20389;-77
2022/02/08 01:45:55;;;;;;;;;;;;;;;;;;5093634;28;19927;-78
2022/02/08 01:48:50;;;;;;;;;;;;;;;;;;5095005;28;19916;-78
2022/02/08 01:51:07;;;;;;;;;;;;;;;;;;5094177;28;20011;-78
2022/02/08 01:53:33;;;;;;;;;;;;;;;;;;5093248;28;20321;-78
2022/02/08 01:56:00;;;;;;;;;;;;;;;;;;5092644;28;21223;-78
2022/02/08 01:58:26;;;;;;;;;;;;;;;;;;5093347;28;20408;-78
2022/02/08 02:00:59;;;;;;;;;;;;;;;;;;5093294;28;19942;-78
2022/02/08 02:03:25;;;;;;;;;;;;;;;;;;5093741;28;19920;-77
2022/02/08 02:05:51;;;;;;;;;;;;;;;;;;5094206;28;20349;-78
2022/02/08 02:08:17;;;;;;;;;;;;;;;;;;5093226;28;19916;-77
2022/02/08 02:10:44;;;;;;;;;;;;;;;;;;5105510;28;19919;-77
2022/02/08 02:13:22;;;;;;;;;;;;;;;;;;5110125;28;20377;-77
2022/02/08 02:15:48;;;;;;;;;;;;;;;;;;5093144;28;19916;-77
2022/02/08 02:18:13;;;;;;;;;;;;;;;;;;5093992;28;19919;-78
2022/02/08 02:20:38;;;;;;;;;;;;;;;;;;5093210;28;19923;-77
2022/02/08 02:23:04;;;;;;;;;;;;;;;;;;5092671;28;20275;-78
2022/02/08 02:25:31;;;;;;;;;;;;;;;;;;5092662;28;19978;-77
2022/02/08 02:27:59;;;;;;;;;;;;;;;;;;5092906;28;20073;-79
2022/02/08 02:30:25;;;;;;;;;;;;;;;;;;5094169;28;19923;-78
2022/02/08 02:32:54;;;;;;;;;;;;;;;;;;5092027;28;19923;-78
2022/02/08 02:35:20;;;;;;;;;;;;;;;;;;5092769;28;19916;-77
2022/02/08 02:37:46;;;;;;;;;;;;;;;;;;5092687;28;19916;-78
2022/02/08 02:40:16;;;;;;;;;;;;;;;;;;5092485;28;19920;-77
2022/02/08 02:42:43;;;;;;;;;;;;;;;;;;5092290;28;19920;-76
2022/02/08 02:45:10;;;;;;;;;;;;;;;;;;5093725;28;19916;-77
2022/02/08 02:47:36;;;;;;;;;;;;;;;;;;5092218;28;20300;-78
2022/02/08 02:50:04;;;;;;;;;;;;;;;;;;5092395;28;20014;-77
2022/02/08 02:52:30;;;;;;;;;;;;;;;;;;5092443;28;19916;-78
2022/02/08 02:54:57;;;;;;;;;;;;;;;;;;5092424;28;19920;-77
2022/02/08 02:57:25;;;;;;;;;;;;;;;;;;5092714;28;19923;-78
2022/02/08 03:00:00;;;;;;;;;;;;;;;;;;5092444;28;19916;-77
2022/02/08 03:02:41;;;;;;;;;;;;;;;;;;5092684;28;19916;-78
2022/02/08 03:05:30;;;;;;;;;;;;;;;;;;5075490;28;19939;-77
2022/02/08 03:18:53;;;;;;;;;;;;;;;;;;5073214;28;19917;-78
2022/02/08 03:21:18;;;;;;;;;;;;;;;;;;5055245;28;19916;-77
2022/02/08 03:23:44;;;;;;;;;;;;;;;;;;5071402;28;19994;-78
2022/02/08 03:26:11;;;;;;;;;;;;;;;;;;5070944;28;19962;-77
2022/02/08 03:28:42;;;;;;;;;;;;;;;;;;5071651;28;20350;-77
2022/02/08 03:31:15;;;;;;;;;;;;;;;;;;5074096;28;19972;-77
2022/02/08 03:33:45;;;;;;;;;;;;;;;;;;5075574;28;19928;-77
2022/02/08 03:36:10;;;;;;;;;;;;;;;;;;5087118;28;20049;-78
2022/02/08 03:38:44;;;;;;;;;;;;;;;;;;5079253;28;19998;-78
2022/02/08 03:41:11;;;;;;;;;;;;;;;;;;5095711;28;20416;-77
2022/02/08 03:43:43;;;;;;;;;;;;;;;;;;5095713;28;19920;-77
2022/02/08 03:46:14;;;;;;;;;;;;;;;;;;5095591;28;19916;-77
2022/02/08 03:48:42;;;;;;;;;;;;;;;;;;5096734;28;19916;-77
2022/02/08 03:51:12;;;;;;;;;;;;;;;;;;5079074;28;19916;-77
2022/02/08 03:53:45;;;;;;;;;;;;;;;;;;5096928;28;19916;-76
2022/02/08 03:56:14;;;;;;;;;;;;;;;;;;5096729;28;19969;-76
2022/02/08 03:58:39;;;;;;;;;;;;;;;;;;5078453;28;20020;-74
2022/02/08 04:01:47;;;;;;;;;;;;;;;;;;5094365;28;19919;-75
2022/02/08 04:04:30;;;;;;;;;;;;;;;;;;5096224;28;20011;-73
2022/02/08 04:06:58;;;;;;;;;;;;;;;;;;5096656;28;20492;-73
2022/02/08 04:09:24;;;;;;;;;;;;;;;;;;5096237;28;19923;-73
2022/02/08 04:12:00;;;;;;;;;;;;;;;;;;5095823;28;19960;-73
2022/02/08 04:17:33;;;;;;;;;;;;;;;;;;5096775;28;20006;-73
2022/02/08 04:36:04;;;;;;;;;;;;;;;;;;5096470;28;19915;-73
2022/02/08 04:38:42;;;;;;;;;;;;;;;;;;5096103;28;19917;-73
2022/02/08 04:41:12;;;;;;;;;;;;;;;;;;5093901;28;19920;-73
2022/02/08 04:43:51;;;;;;;;;;;;;;;;;;5095337;28;20324;-73
2022/02/08 04:46:28;;;;;;;;;;;;;;;;;;5096003;28;19958;-73
2022/02/08 04:48:56;;;;;;;;;;;;;;;;;;5094550;28;19920;-73
2022/02/08 04:51:28;;;;;;;;;;;;;;;;;;5095743;28;19916;-73
2022/02/08 04:54:05;;;;;;;;;;;;;;;;;;5095835;28;19924;-73
2022/02/08 05:30:00;;;;;;;;;;;;;;;;;;5094989;28;19923;-74
2022/02/08 05:40:36;;;;;;;;;;;;;;;;;;5094569;28;19916;-74
2022/02/08 05:45:47;;;;;;;;;;;;;;;;;;5094822;28;19916;-74
2022/02/08 05:48:21;;;;;;;;;;;;;;;;;;5094997;28;20396;-74
2022/02/08 05:50:57;;;;;;;;;;;;;;;;;;5092544;28;19928;-74
2022/02/08 05:53:30;;;;;;;;;;;;;;;;;;5092189;28;20002;-74
2022/02/08 05:55:55;;;;;;;;;;;;;;;;;;5094473;28;19916;-74
2022/02/08 05:58:20;;;;;;;;;;;;;;;;;;5094658;28;19916;-74
2022/02/08 06:00:46;;;;;;;;;;;;;;;;;;5094855;28;19920;-74
2022/02/08 06:03:25;;;;;;;;;;;;;;;;;;5092980;28;19920;-74
2022/02/08 06:05:56;;;;;;;;;;;;;;;;;;5092017;28;19924;-74
2022/02/08 06:08:21;;;;;;;;;;;;;;;;;;5094115;28;19916;-74
2022/02/08 06:10:50;;;;;;;;;;;;;;;;;;5093909;28;19969;-74
2022/02/08 06:13:16;;;;;;;;;;;;;;;;;;5094352;28;19959;-73
2022/02/08 06:15:44;;;;;;;;;;;;;;;;;;5076210;28;19965;-73
2022/02/08 06:18:10;;;;;;;;;;;;;;;;;;5075939;28;19916;-73
2022/02/08 06:20:35;;;;;;;;;;;;;;;;;;5094055;28;19920;-73
2022/02/08 06:23:01;;;;;;;;;;;;;;;;;;5092588;28;19973;-73
2022/02/08 06:25:26;;;;;;;;;;;;;;;;;;5094051;28;19916;-73
2022/02/08 06:27:52;;;;;;;;;;;;;;;;;;5092860;28;19916;-73
2022/02/08 06:30:18;;;;;;;;;;;;;;;;;;5093856;28;19924;-74
2022/02/08 06:32:44;;;;;;;;;;;;;;;;;;5094088;28;19916;-75
2022/02/08 06:35:20;;;;;;;;;;;;;;;;;;5092825;28;19916;-74
2022/02/08 06:37:45;;;;;;;;;;;;;;;;;;5092591;28;20204;-74
2022/02/08 06:40:11;;;;;;;;;;;;;;;;;;5092431;28;19951;-74
2022/02/08 06:42:37;;;;;;;;;;;;;;;;;;5094008;28;19967;-74
2022/02/08 06:45:04;;;;;;;;;;;;;;;;;;5093875;28;19916;-74
2022/02/08 06:47:31;;;;;;;;;;;;;;;;;;5093047;28;19923;-75
2022/02/08 06:49:57;;;;;;;;;;;;;;;;;;5093613;28;19924;-75
2022/02/08 06:52:22;;;;;;;;;;;;;;;;;;5093786;28;19973;-75
2022/02/08 06:54:48;;;;;;;;;;;;;;;;;;5092546;28;19951;-74
2022/02/08 06:57:14;;;;;;;;;;;;;;;;;;5093821;28;20320;-74
2022/02/08 06:59:40;;;;;;;;;;;;;;;;;;5093734;28;19969;-74
2022/02/08 07:02:05;;;;;;;;;;;;;;;;;;5093842;28;19920;-74
2022/02/08 07:04:31;;;;;;;;;;;;;;;;;;5092974;28;20361;-75
2022/02/08 07:06:56;;;;;;;;;;;;;;;;;;5097689;28;19977;-74
2022/02/08 07:09:22;;;;;;;;;;;;;;;;;;5097799;28;20287;-72
2022/02/08 07:11:48;;;;;;;;;;;;;;;;;;5097724;28;20407;-72
2022/02/08 07:14:14;;;;;;;;;;;;;;;;;;5097613;28;19943;-72
2022/02/08 07:16:39;;;;;;;;;;;;;;;;;;5095985;28;19917;-72
2022/02/08 07:19:04;;;;;;;;;;;;;;;;;;5096541;28;19920;-72
2022/02/08 07:21:30;;;;;;;;;;;;;;;;;;5097382;28;20372;-72
2022/02/08 07:23:55;;;;;;;;;;;;;;;;;;5097585;28;19920;-72
2022/02/08 07:26:22;;;;;;;;;;;;;;;;;;5097366;28;19916;-72
2022/02/08 07:28:48;;;;;;;;;;;;;;;;;;5095954;28;19922;-72
2022/02/08 07:31:23;;;;;;;;;;;;;;;;;;5097423;28;20003;-72
2022/02/08 07:33:56;;;;;;;;;;;;;;;;;;5097237;28;19927;-72
2022/02/08 07:39:08;;;;;;;;;;;;;;;;;;5097217;28;19916;-72
2022/02/08 07:41:42;;;;;;;;;;;;;;;;;;5097211;28;20007;-71
2022/02/08 07:44:09;;;;;;;;;;;;;;;;;;5096614;28;19927;-73
2022/02/08 07:46:44;;;;;;;;;;;;;;;;;;5094627;28;19939;-71
2022/02/08 07:49:10;;;;;;;;;;;;;;;;;;5096930;28;19920;-72
2022/02/08 07:51:38;;;;;;;;;;;;;;;;;;5096625;28;19926;-74
2022/02/08 07:54:04;;;;;;;;;;;;;;;;;;5096217;28;19967;-74
2022/02/08 07:56:30;;;;;;;;;;;;;;;;;;5097310;28;19958;-74
2022/02/08 07:58:55;;;;;;;;;;;;;;;;;;5097105;28;19916;-74
2022/02/08 08:01:21;;;;;;;;;;;;;;;;;;5095058;28;19916;-74
2022/02/08 08:03:46;;;;;;;;;;;;;;;;;;5097356;28;20396;-74
2022/02/08 08:06:13;;;;;;;;;;;;;;;;;;5096879;28;19923;-73
2022/02/08 08:08:38;;;;;;;;;;;;;;;;;;5096077;28;19916;-72
2022/02/08 08:11:09;;;;;;;;;;;;;;;;;;5096550;28;19918;-72
2022/02/08 08:13:39;;;;;;;;;;;;;;;;;;5096451;28;20289;-72
2022/02/08 08:16:15;;;;;;;;;;;;;;;;;;5096024;28;19922;-71
2022/02/08 08:19:25;;;;;;;;;;;;;;;;;;5094934;28;19917;-72
2022/02/08 08:21:30;;;;;;;;;;;;;;;;;;5084298;28;19916;-71
2022/02/08 08:23:57;;;;;;;;;;;;;;;;;;5096110;28;19931;-71
2022/02/08 08:26:22;;;;;;;;;;;;;;;;;;5095133;28;19916;-71
2022/02/08 08:28:48;;;;;;;;;;;;;;;;;;5096330;28;20444;-71
2022/02/08 08:31:14;;;;;;;;;;;;;;;;;;5094892;28;20015;-72
2022/02/08 08:33:39;;;;;;;;;;;;;;;;;;5095038;28;19923;-71
2022/02/08 08:36:08;;;;;;;;;;;;;;;;;;5095350;28;20338;-72
2022/02/08 08:38:34;;;;;;;;;;;;;;;;;;5095857;28;19966;-72
2022/02/08 08:51:43;;;;;;;;;;;;;;;;;;5095908;28;19916;-75
2022/02/08 08:54:09;;;;;;;;;;;;;;;;;;5095431;28;19924;-76
2022/02/08 08:56:37;;;;;;;;;;;;;;;;;;5095115;28;19923;-75
2022/02/08 08:59:04;;;;;;;;;;;;;;;;;;5095318;28;20365;-75
2022/02/08 09:01:29;;;;;;;;;;;;;;;;;;5095455;28;19916;-76
2022/02/08 09:03:55;;;;;;;;;;;;;;;;;;5094620;28;20019;-76
2022/02/08 09:06:20;;;;;;;;;;;;;;;;;;5095090;28;19916;-75
2022/02/08 09:08:45;;;;;;;;;;;;;;;;;;5095579;28;19916;-75
2022/02/08 09:11:47;;;;;;;;;;;;;;;;;;5095789;28;20369;-74
2022/02/08 09:16:44;;;;;;;;;;;;;;;;;;5095415;28;20342;-77
2022/02/08 09:19:39;;;;;;;;;;;;;;;;;;5095132;28;19916;-78
2022/02/08 09:27:49;;;;;;;;;;;;;;;;;;5094748;28;19916;-76
2022/02/08 09:30:17;;;;;;;;;;;;;;;;;;5093005;28;19928;-75
2022/02/08 09:32:45;;;;;;;;;;;;;;;;;;5094922;28;19923;-76
2022/02/08 09:35:11;;;;;;;;;;;;;;;;;;5094897;28;19971;-76
2022/02/08 09:37:37;;;;;;;;;;;;;;;;;;5095003;28;20380;-75
2022/02/08 09:40:04;;;;;;;;;;;;;;;;;;5093648;28;19916;-76
2022/02/08 09:42:29;;;;;;;;;;;;;;;;;;5094029;28;19969;-76
2022/02/08 09:44:55;;;;;;;;;;;;;;;;;;5094599;28;19974;-76
2022/02/08 09:47:31;;;;;;;;;;;;;;;;;;5094649;28;20373;-76
2022/02/08 09:50:04;;;;;;;;;;;;;;;;;;5094424;28;19923;-76
2022/02/08 09:52:29;;;;;;;;;;;;;;;;;;5094697;28;19916;-76
2022/02/08 09:54:55;;;;;;;;;;;;;;;;;;5093433;28;20289;-75
2022/02/08 09:57:20;;;;;;;;;;;;;;;;;;5094043;28;19939;-76
2022/02/08 09:59:47;;;;;;;;;;;;;;;;;;5093653;28;20306;-75
2022/02/08 10:02:16;;;;;;;;;;;;;;;;;;5094423;28;19962;-76
2022/02/08 10:04:42;;;;;;;;;;;;;;;;;;5094629;28;19920;-76
2022/02/08 10:07:10;;;;;;;;;;;;;;;;;;5094411;28;20370;-75
2022/02/08 10:09:36;;;;;;;;;;;;;;;;;;5094236;28;19920;-76
2022/02/08 10:12:01;;;;;;;;;;;;;;;;;;5093000;28;19916;-76
2022/02/08 10:14:40;;;;;;;;;;;;;;;;;;5094075;28;19923;-75
2022/02/08 10:22:15;;;;;;;;;;;;;;;;;;5094077;28;19963;-77
2022/02/08 10:24:48;;;;;;;;;;;;;;;;;;5094748;28;20002;-76
2022/02/08 10:27:27;;;;;;;;;;;;;;;;;;5079124;28;19965;-73
2022/02/08 10:37:56;;;;;;;;;;;;;;;;;;5092145;28;19916;-72
2022/02/08 10:40:24;;;;;;;;;;;;;;;;;;5093776;28;19959;-72
2022/02/08 10:42:54;;;;;;;;;;;;;;;;;;5093834;28;20285;-73
2022/02/08 10:45:21;;;;;;;;;;;;;;;;;;5092826;28;19920;-76
2022/02/08 10:47:51;;;;;;;;;;;;;;;;;;5093994;28;19927;-78
2022/02/08 10:50:16;;;;;;;;;;;;;;;;;;5096781;28;19924;-78
2022/02/08 10:52:43;;;;;;;;;;;;;;;;;;5096128;28;19916;-77
2022/02/08 10:57:49;;;;;;;;;;;;;;;;;;5092372;28;19916;-73
2022/02/08 11:00:21;;;;;;;;;;;;;;;;;;5093215;28;19920;-77
2022/02/08 11:02:49;;;;;;;;;;;;;;;;;;5077625;28;19920;-77
2022/02/08 11:07:57;;;;;;;;;;;;;;;;;;5096085;28;20312;-77
2022/02/08 11:10:45;;;;;;;;;;;;;;;;;;5095062;28;19916;-77
2022/02/08 11:24:01;;;;;;;;;;;;;;;;;;5077488;28;20381;-77
2022/02/08 11:26:30;;;;;;;;;;;;;;;;;;5077201;28;20023;-77
2022/02/08 11:28:55;;;;;;;;;;;;;;;;;;5076220;28;19971;-75
2022/02/08 11:31:35;;;;;;;;;;;;;;;;;;5074757;28;19917;-77
2022/02/08 11:50:22;;;;;;;;;;;;;;;;;;5073454;28;20358;-77
2022/02/08 11:52:57;;;;;;;;;;;;;;;;;;5076256;28;19916;-77
2022/02/08 11:56:19;;;;;;;;;;;;;;;;;;5075846;28;19961;-76
2022/02/08 11:58:20;;;;;;;;;;;;;;;;;;5076722;28;19916;-78
2022/02/08 12:00:58;;;;;;;;;;;;;;;;;;5091540;28;19926;-77
2022/02/08 12:06:43;;;;;;;;;;;;;;;;;;5117170;28;19915;-77
2022/02/08 12:09:12;;;;;;;;;;;;;;;;;;5115966;28;19915;-77
2022/02/08 12:12:13;;;;;;;;;;;;;;;;;;5116582;28;19920;-77
2022/02/08 12:28:46;;;;;;;;;;;;;;;;;;5115820;28;19916;-77
2022/02/08 12:33:28;;;;;;;;;;;;;;;;;;5096236;28;19916;-77
2022/02/08 12:55:54;;;;;;;;;;;;;;;;;;5095891;28;19920;-77
2022/02/08 12:58:34;;;;;;;;;;;;;;;;;;5094533;28;19923;-77
2022/02/08 13:04:31;;;;;;;;;;;;;;;;;;5012492;28;20322;-76
2022/02/08 13:20:19;;;;;;;;;;;;;;;;;;5074988;28;19959;-77
2022/02/08 14:07:06;;;;;;;;;;;;;;;;;;5094433;28;19958;-77
2022/02/08 14:09:48;;;;;;;;;;;;;;;;;;5094198;28;19916;-77
2022/02/08 14:15:04;;;;;;;;;;;;;;;;;;5072333;28;19923;-76
2022/02/08 14:17:40;;;;;;;;;;;;;;;;;;5074096;28;19916;-75
2022/02/08 14:20:40;;;;;;;;;;;;;;;;;;5072382;28;19916;-76
2022/02/08 14:23:27;;;;;;;;;;;;;;;;;;5073971;28;19961;-75
2022/02/08 14:33:54;;;;;;;;;;;;;;;;;;5073967;28;19920;-74
2022/02/08 14:57:33;;;;;;;;;;;;;;;;;;5093750;28;19927;-74
2022/02/08 15:06:41;;;;;;;;;;;;;;;;;;5076139;28;19920;-73
2022/02/08 15:09:05;;;;;;;;;;;;;;;;;;5079576;28;20335;-73
2022/02/08 15:11:46;;;;;;;;;;;;;;;;;;5075885;28;19916;-73
2022/02/08 15:14:11;;;;;;;;;;;;;;;;;;5077794;28;19916;-73
2022/02/08 15:16:37;;;;;;;;;;;;;;;;;;5081713;28;19916;-73
2022/02/08 15:19:02;;;;;;;;;;;;;;;;;;5083229;28;19916;-74
2022/02/08 15:21:31;;;;;;;;;;;;;;;;;;5082120;28;19924;-73
2022/02/08 15:23:57;;;;;;;;;;;;;;;;;;5083482;28;20007;-73
2022/02/08 15:26:22;;;;;;;;;;;;;;;;;;5082570;28;19999;-72
2022/02/08 15:28:48;;;;;;;;;;;;;;;;;;5087327;28;19971;-73
2022/02/08 15:31:15;;;;;;;;;;;;;;;;;;5084900;28;19916;-72
2022/02/08 15:33:40;;;;;;;;;;;;;;;;;;5093703;28;19923;-73
2022/02/08 15:36:06;;;;;;;;;;;;;;;;;;5086177;28;19920;-73
2022/02/08 15:38:33;;;;;;;;;;;;;;;;;;5085122;28;19970;-73
2022/02/08 15:40:59;;;;;;;;;;;;;;;;;;5087652;28;19948;-73
2022/02/08 15:43:25;;;;;;;;;;;;;;;;;;5086498;28;19977;-74
2022/02/08 15:45:55;;;;;;;;;;;;;;;;;;5081134;28;19916;-72
2022/02/08 15:48:22;;;;;;;;;;;;;;;;;;5080921;28;20381;-73
2022/02/08 15:51:00;;;;;;;;;;;;;;;;;;5087979;28;19926;-74
2022/02/08 15:56:20;;;;;;;;;;;;;;;;;;5086480;28;19917;-75
2022/02/08 16:09:26;;;;;;;;;;;;;;;;;;5082683;28;20430;-78
2022/02/08 16:12:10;;;;;;;;;;;;;;;;;;5085192;28;19942;-77
2022/02/08 16:15:02;;;;;;;;;;;;;;;;;;5094124;28;20386;-78
2022/02/08 16:17:44;;;;;;;;;;;;;;;;;;5098149;28;19927;-78
2022/02/08 16:23:20;;;;;;;;;;;;;;;;;;5100917;28;20019;-80
2022/02/08 16:25:57;;;;;;;;;;;;;;;;;;5103806;28;19916;-80
2022/02/08 16:50:27;;;;;;;;;;;;;;;;;;5081969;28;19928;-84
2022/02/08 16:58:08;;;;;;;;;;;;;;;;;;5080328;28;19916;-79
2022/02/08 17:00:35;;;;;;;;;;;;;;;;;;5078953;28;20385;-80
2022/02/08 17:03:05;;;;;;;;;;;;;;;;;;5101577;28;19916;-85
2022/02/08 17:05:30;;;;;;;;;;;;;;;;;;5121155;28;20022;-78
2022/02/08 17:07:56;;;;;;;;;;;;;;;;;;5123058;28;19955;-80
2022/02/08 17:13:01;;;;;;;;;;;;;;;;;;5119759;28;19959;-77
2022/02/08 17:18:34;;;;;;;;;;;;;;;;;;5093737;28;20316;-73
2022/02/08 17:48:08;;;;;;;;;;;;;;;;;;5093045;28;19927;-73
2022/02/08 17:50:33;;;;;;;;;;;;;;;;;;5093967;28;19927;-73
2022/02/08 17:52:59;;;;;;;;;;;;;;;;;;5094560;28;20373;-73
2022/02/08 17:55:24;;;;;;;;;;;;;;;;;;5093875;28;19916;-73
2022/02/08 17:57:50;;;;;;;;;;;;;;;;;;5094674;28;19962;-73
2022/02/08 18:00:16;;;;;;;;;;;;;;;;;;5094618;28;19998;-73
2022/02/08 18:02:43;;;;;;;;;;;;;;;;;;5092975;28;19920;-73
2022/02/08 18:05:09;;;;;;;;;;;;;;;;;;5092197;28;20035;-73
2022/02/08 18:07:36;;;;;;;;;;;;;;;;;;5094529;28;20378;-73
2022/02/08 18:10:01;;;;;;;;;;;;;;;;;;5092798;28;20504;-73
2022/02/08 18:12:28;;;;;;;;;;;;;;;;;;5093374;28;20395;-73
2022/02/08 18:14:57;;;;;;;;;;;;;;;;;;5094390;28;19977;-73
2022/02/08 18:17:33;;;;;;;;;;;;;;;;;;5093190;28;19923;-73
2022/02/08 18:22:56;;;;;;;;;;;;;;;;;;5094252;28;20348;-73
2022/02/08 19:16:15;;;;;;;;;;;;;;;;;;5087923;28;19916;-72
2022/02/08 19:21:31;;;;;;;;;;;;;;;;;;5085130;28;19916;-72
2022/02/08 19:23:54;;;;;;;;;;;;;;;;;;5087164;28;19928;-72
2022/02/08 19:26:23;;;;;;;;;;;;;;;;;;5085648;28;19924;-72
2022/02/08 19:28:49;;;;;;;;;;;;;;;;;;5087318;28;19919;-72
2022/02/08 19:31:19;;;;;;;;;;;;;;;;;;5085308;28;20340;-73
2022/02/08 19:33:45;;;;;;;;;;;;;;;;;;5075774;28;19923;-72
2022/02/08 19:36:10;;;;;;;;;;;;;;;;;;5095035;28;19916;-73
2022/02/08 19:38:38;;;;;;;;;;;;;;;;;;5097317;28;20361;-73
2022/02/08 19:41:04;;;;;;;;;;;;;;;;;;5096888;28;19924;-72
2022/02/08 19:43:29;;;;;;;;;;;;;;;;;;5096003;28;19916;-72
2022/02/08 19:45:54;;;;;;;;;;;;;;;;;;5097125;28;20438;-72
2022/02/08 19:48:20;;;;;;;;;;;;;;;;;;5097008;28;19916;-72
2022/02/08 19:50:46;;;;;;;;;;;;;;;;;;5097030;28;19963;-73
2022/02/08 19:53:12;;;;;;;;;;;;;;;;;;5096642;28;19916;-72
2022/02/08 19:58:19;;;;;;;;;;;;;;;;;;5095877;28;20006;-72
2022/02/08 20:00:54;;;;;;;;;;;;;;;;;;5095468;28;19930;-72
2022/02/08 20:03:20;;;;;;;;;;;;;;;;;;5095140;28;19916;-73
2022/02/08 20:05:47;;;;;;;;;;;;;;;;;;5092000;28;20041;-72
2022/02/08 20:08:12;;;;;;;;;;;;;;;;;;5096469;28;19916;-72
2022/02/08 20:10:37;;;;;;;;;;;;;;;;;;5087261;28;19923;-72
2022/02/08 20:13:02;;;;;;;;;;;;;;;;;;5085735;28;19922;-72
2022/02/08 20:15:28;;;;;;;;;;;;;;;;;;5083995;28;19977;-72
2022/02/08 20:17:53;;;;;;;;;;;;;;;;;;5079735;28;19917;-73
2022/02/08 20:20:20;;;;;;;;;;;;;;;;;;5085920;28;19966;-74
2022/02/08 20:22:52;;;;;;;;;;;;;;;;;;5084035;28;19920;-73
2022/02/08 20:25:21;;;;;;;;;;;;;;;;;;5081457;28;19959;-73
2022/02/08 20:27:52;;;;;;;;;;;;;;;;;;5081944;28;20381;-72
2022/02/08 20:30:21;;;;;;;;;;;;;;;;;;5083839;28;19955;-73
2022/02/08 20:32:47;;;;;;;;;;;;;;;;;;5083744;28;19927;-73
2022/02/08 20:35:12;;;;;;;;;;;;;;;;;;5095085;28;19916;-73
2022/02/08 20:37:41;;;;;;;;;;;;;;;;;;5096168;28;19923;-73
2022/02/08 20:40:07;;;;;;;;;;;;;;;;;;5095810;28;20262;-73
2022/02/08 20:42:33;;;;;;;;;;;;;;;;;;5096192;28;19924;-73
2022/02/08 20:44:58;;;;;;;;;;;;;;;;;;5095946;28;19920;-73
2022/02/08 20:47:26;;;;;;;;;;;;;;;;;;5095755;28;19922;-73
2022/02/08 20:49:58;;;;;;;;;;;;;;;;;;5095655;28;19920;-73
2022/02/08 20:52:26;;;;;;;;;;;;;;;;;;5095982;28;19923;-73
2022/02/08 20:55:03;;;;;;;;;;;;;;;;;;5094698;28;19916;-73
2022/02/08 20:57:35;;;;;;;;;;;;;;;;;;5088001;28;19923;-73
2022/02/08 21:00:03;;;;;;;;;;;;;;;;;;5084203;28;19955;-73
2022/02/08 21:02:36;;;;;;;;;;;;;;;;;;5082971;28;19917;-73
2022/02/08 21:05:28;;;;;;;;;;;;;;;;;;5084455;28;19927;-73
2022/02/08 21:07:47;;;;;;;;;;;;;;;;;;5083872;28;19916;-73
2022/02/08 21:10:13;;;;;;;;;;;;;;;;;;5085307;28;19942;-73
2022/02/08 21:12:42;;;;;;;;;;;;;;;;;;5084583;28;19923;-73
2022/02/08 21:15:09;;;;;;;;;;;;;;;;;;5083806;28;19920;-73
2022/02/08 21:17:36;;;;;;;;;;;;;;;;;;5085438;28;20364;-73
2022/02/08 21:20:01;;;;;;;;;;;;;;;;;;5085280;28;19923;-73
2022/02/08 21:22:26;;;;;;;;;;;;;;;;;;5083102;28;19920;-73
2022/02/08 21:24:54;;;;;;;;;;;;;;;;;;5084391;28;19920;-73
2022/02/08 21:27:21;;;;;;;;;;;;;;;;;;5084512;28;19917;-73
2022/02/08 21:30:04;;;;;;;;;;;;;;;;;;5082885;28;19998;-73
2022/02/08 21:49:16;;;;;;;;;;;;;;;;;;5059659;28;19920;-74
2022/02/08 21:54:46;;;;;;;;;;;;;;;;;;5012250;28;19924;-73
2022/02/08 21:57:16;;;;;;;;;;;;;;;;;;4996032;28;20388;-73
2022/02/08 21:59:42;;;;;;;;;;;;;;;;;;5043214;28;19917;-73
2022/02/08 22:02:07;;;;;;;;;;;;;;;;;;5091126;28;19981;-73
2022/02/08 22:04:32;;;;;;;;;;;;;;;;;;5092933;28;20468;-73
2022/02/08 22:06:58;;;;;;;;;;;;;;;;;;5094198;28;19956;-73
2022/02/08 22:09:27;;;;;;;;;;;;;;;;;;5092277;28;19916;-73
2022/02/08 22:22:26;;;;;;;;;;;;;;;;;;5093451;28;19916;-73
2022/02/08 22:27:42;;;;;;;;;;;;;;;;;;5094041;28;20388;-73
2022/02/08 22:32:37;;;;;;;;;;;;;;;;;;5094040;28;19916;-73
2022/02/08 22:35:16;;;;;;;;;;;;;;;;;;5093451;28;20354;-73
2022/02/08 22:37:49;;;;;;;;;;;;;;;;;;5092377;28;19916;-73
2022/02/08 22:40:25;;;;;;;;;;;;;;;;;;5093876;28;19942;-73
2022/02/08 22:42:52;;;;;;;;;;;;;;;;;;5093991;28;19916;-73
2022/02/08 22:45:19;;;;;;;;;;;;;;;;;;5074695;28;19975;-73
2022/02/08 22:47:45;;;;;;;;;;;;;;;;;;5093895;28;19923;-73
2022/02/08 22:50:11;;;;;;;;;;;;;;;;;;5093743;28;19927;-73
2022/02/08 22:52:37;;;;;;;;;;;;;;;;;;5093489;28;19920;-73
2022/02/08 22:55:03;;;;;;;;;;;;;;;;;;5093632;28;20065;-73
2022/02/08 22:57:28;;;;;;;;;;;;;;;;;;5093328;28;19970;-73
2022/02/08 22:59:56;;;;;;;;;;;;;;;;;;5093733;28;19923;-73
2022/02/08 23:02:21;;;;;;;;;;;;;;;;;;5091324;28;19967;-73
2022/02/08 23:04:48;;;;;;;;;;;;;;;;;;5093075;28;20368;-73
2022/02/08 23:07:14;;;;;;;;;;;;;;;;;;5091441;28;19916;-72
2022/02/08 23:10:04;;;;;;;;;;;;;;;;;;5093387;28;19976;-73
2022/02/08 23:38:54;;;;;;;;;;;;;;;;;;5093358;28;19915;-73
2022/02/08 23:41:20;;;;;;;;;;;;;;;;;;5093460;28;20006;-73
2022/02/08 23:43:47;;;;;;;;;;;;;;;;;;5093217;28;19920;-73
2022/02/08 23:46:13;;;;;;;;;;;;;;;;;;5092482;28;20286;-73
2022/02/08 23:48:50;;;;;;;;;;;;;;;;;;5096109;28;19920;-73
2022/02/08 23:51:19;;;;;;;;;;;;;;;;;;5096960;28;19966;-73
2022/02/08 23:54:00;;;;;;;;;;;;;;;;;;5096824;28;20294;-73
2022/02/08 23:59:05;;;;;;;;;;;;;;;;;;5095610;28;20393;-73
